Terminal Aerodrome Forecast
Issued by NWS

Home | Current Version | Previous Version | Text Only | Print | Product List | Glossary On
Versions: 1 2 3 4 5 6 7 8 9 10 11 12
000
FTUS44 KTSA 041120
TAFMLC
TAF
KMLC 041120Z 0412/0512 18003KT P6SM VCSH SCT080 BKN250
      TEMPO 0412/0416 5SM -RA BKN050
     FM041800 21006KT P6SM OVC250
     FM050000 12003KT P6SM OVC250=

USA.gov is the U.S. government's official web portal to all federal, state and local government web resources and services.